createdAt,value
2022-07-26T00:00:12.834Z,2.60
2022-07-26T00:02:47.695Z,2.80
2022-07-26T00:05:15.320Z,2.72
2022-07-26T00:07:42.019Z,2.42
2022-07-26T00:10:09.136Z,2.75
2022-07-26T00:12:36.044Z,2.65
2022-07-26T00:15:04.090Z,2.20
2022-07-26T00:17:30.705Z,2.90
2022-07-26T00:19:57.341Z,2.30
2022-07-26T00:22:35.932Z,2.50
2022-07-26T00:25:07.499Z,2.47
2022-07-26T00:27:37.433Z,2.33
2022-07-26T00:30:06.268Z,2.58
2022-07-26T00:32:32.995Z,2.40
2022-07-26T00:34:59.600Z,2.50
2022-07-26T00:37:26.278Z,2.47
2022-07-26T00:39:52.886Z,2.40
2022-07-26T00:42:19.510Z,2.30
2022-07-26T00:44:46.314Z,2.50
2022-07-26T00:47:13.976Z,2.25
2022-07-26T00:49:41.578Z,2.15
2022-07-26T00:52:09.539Z,2.42
2022-07-26T00:54:37.387Z,2.00
2022-07-26T00:57:05.003Z,2.28
2022-07-26T00:59:31.699Z,2.40
2022-07-26T01:01:58.762Z,2.20
2022-07-26T01:04:25.786Z,2.33
2022-07-26T01:06:53.455Z,2.20
2022-07-26T01:09:20.164Z,2.33
2022-07-26T01:11:46.866Z,2.08
2022-07-26T01:14:13.521Z,1.95
2022-07-26T01:16:40.410Z,2.20
2022-07-26T01:19:07.066Z,2.10
2022-07-26T01:21:34.110Z,2.00
2022-07-26T01:24:01.193Z,2.10
2022-07-26T01:26:28.436Z,1.77
2022-07-26T01:28:55.064Z,1.98
2022-07-26T01:31:22.103Z,2.38
2022-07-26T01:33:50.437Z,1.95
2022-07-26T01:36:17.732Z,2.40
2022-07-26T01:38:44.422Z,2.47
2022-07-26T01:41:12.135Z,2.20
2022-07-26T01:43:39.232Z,2.05
2022-07-26T01:46:10.102Z,2.17
2022-07-26T01:48:37.118Z,2.30
2022-07-26T01:51:04.007Z,2.10
2022-07-26T01:53:30.692Z,1.95
2022-07-26T01:55:57.720Z,2.10
2022-07-26T01:58:24.815Z,2.60
2022-07-26T02:00:51.559Z,2.50
2022-07-26T02:03:18.544Z,2.30
2022-07-26T02:05:45.559Z,2.08
2022-07-26T02:08:12.221Z,2.30
2022-07-26T02:10:58.379Z,2.20
2022-07-26T02:13:25.171Z,2.28
2022-07-26T02:15:51.990Z,2.28
2022-07-26T02:18:18.732Z,2.40
2022-07-26T02:20:45.416Z,2.10
2022-07-26T02:23:12.339Z,2.42
2022-07-26T02:25:39.068Z,2.60
2022-07-26T02:28:05.710Z,2.65
2022-07-26T02:30:32.402Z,2.42
2022-07-26T02:33:00.320Z,2.30
2022-07-26T02:35:27.270Z,2.35
2022-07-26T02:37:53.856Z,2.50
2022-07-26T02:40:20.472Z,2.50
2022-07-26T02:42:47.149Z,2.53
2022-07-26T02:45:13.750Z,2.45
2022-07-26T02:47:48.571Z,2.53
2022-07-26T02:50:19.453Z,2.30
2022-07-26T02:52:49.765Z,2.70
2022-07-26T02:55:17.791Z,2.45
2022-07-26T02:57:46.388Z,2.20
2022-07-26T03:00:20.098Z,2.50
2022-07-26T03:02:49.090Z,2.50
2022-07-26T03:05:16.774Z,2.50
2022-07-26T03:07:43.365Z,2.55
2022-07-26T03:10:10.233Z,2.40
2022-07-26T03:12:36.882Z,2.13
2022-07-26T03:15:04.015Z,2.75
2022-07-26T03:17:30.598Z,2.17
2022-07-26T03:19:59.216Z,2.30
2022-07-26T03:22:25.887Z,2.35
2022-07-26T03:24:52.493Z,2.40
2022-07-26T03:27:19.124Z,2.50
2022-07-26T03:29:45.761Z,2.20
2022-07-26T03:32:12.401Z,2.30
2022-07-26T03:34:39.001Z,2.13
2022-07-26T03:37:05.620Z,2.50
2022-07-26T03:39:32.300Z,2.20
2022-07-26T03:41:58.946Z,2.55
2022-07-26T03:44:25.536Z,2.05
2022-07-26T03:46:52.201Z,2.63
2022-07-26T03:49:19.048Z,2.38
2022-07-26T03:51:45.717Z,2.20
2022-07-26T03:54:12.628Z,1.80
2022-07-26T03:56:40.468Z,2.25
2022-07-26T03:59:09.041Z,1.92
2022-07-26T04:01:37.370Z,1.85
2022-07-26T04:04:04.576Z,2.67
2022-07-26T04:06:31.517Z,1.90
2022-07-26T04:08:58.210Z,1.90
2022-07-26T04:11:26.537Z,2.05
2022-07-26T04:13:54.988Z,2.33
2022-07-26T04:16:21.570Z,2.00
2022-07-26T04:18:48.255Z,2.10
2022-07-26T04:21:14.964Z,2.20
2022-07-26T04:23:41.758Z,2.47
2022-07-26T04:26:08.478Z,2.03
2022-07-26T04:28:35.131Z,2.10
2022-07-26T04:31:01.841Z,2.03
2022-07-26T04:33:28.513Z,2.22
2022-07-26T04:35:55.288Z,2.28
2022-07-26T04:38:22.249Z,2.10
2022-07-26T04:40:50.921Z,2.35
2022-07-26T04:43:18.287Z,2.38
2022-07-26T04:45:48.449Z,2.63
2022-07-26T04:48:15.911Z,2.33
2022-07-26T04:50:43.569Z,2.40
2022-07-26T04:53:11.173Z,2.17
2022-07-26T04:55:38.585Z,2.28
2022-07-26T04:58:05.649Z,2.20
2022-07-26T05:00:32.481Z,2.47
2022-07-26T05:03:00.667Z,2.40
2022-07-26T05:05:29.774Z,2.60
2022-07-26T05:08:00.629Z,2.28
2022-07-26T05:10:35.287Z,2.20
2022-07-26T05:13:06.430Z,2.47
2022-07-26T05:18:07.071Z,2.03
2022-07-26T05:20:34.890Z,2.15
2022-07-26T05:23:01.624Z,2.80
2022-07-26T05:25:28.360Z,2.55
2022-07-26T05:27:54.999Z,2.38
2022-07-26T05:30:21.749Z,2.50
2022-07-26T05:32:48.392Z,2.30
2022-07-26T05:35:15.130Z,2.05
2022-07-26T05:37:41.809Z,2.15
2022-07-26T05:40:09.286Z,2.30
2022-07-26T05:42:36.158Z,1.95
2022-07-26T05:45:03.883Z,2.65
2022-07-26T05:47:30.560Z,2.05
2022-07-26T05:49:57.362Z,1.88
2022-07-26T05:52:24.029Z,2.00
2022-07-26T05:54:50.706Z,2.08
2022-07-26T05:57:17.376Z,2.40
2022-07-26T05:59:43.996Z,2.30
2022-07-26T06:02:10.671Z,2.30
2022-07-26T06:04:37.348Z,2.30
2022-07-26T06:07:04.019Z,2.40
2022-07-26T06:09:30.659Z,2.33
2022-07-26T06:11:57.287Z,2.30
2022-07-26T06:14:24.649Z,2.42
2022-07-26T06:16:51.407Z,2.20
2022-07-26T06:19:18.078Z,2.10
2022-07-26T06:21:46.111Z,2.00
2022-07-26T06:24:13.113Z,2.08
2022-07-26T06:26:39.964Z,2.40
2022-07-26T06:29:06.619Z,2.20
2022-07-26T06:31:33.856Z,2.05
2022-07-26T06:34:00.510Z,2.13
2022-07-26T06:36:30.544Z,2.47
2022-07-26T06:38:58.013Z,2.10
2022-07-26T06:41:24.654Z,2.10
2022-07-26T06:43:51.241Z,2.13
2022-07-26T06:46:19.446Z,2.40
2022-07-26T06:48:47.560Z,2.17
2022-07-26T06:51:19.557Z,2.30
2022-07-26T06:53:46.128Z,2.35
2022-07-26T06:56:14.904Z,2.40
2022-07-26T06:58:42.554Z,2.22
2022-07-26T07:01:09.575Z,2.45
2022-07-26T07:03:36.276Z,2.53
2022-07-26T07:06:03.240Z,2.33
2022-07-26T07:08:29.866Z,2.38
2022-07-26T07:10:56.770Z,2.50
2022-07-26T07:13:23.730Z,2.10
2022-07-26T07:15:50.359Z,2.08
2022-07-26T07:18:17.169Z,2.15
2022-07-26T07:20:43.763Z,2.72
2022-07-26T07:23:10.362Z,2.83
2022-07-26T07:25:36.996Z,3.05
2022-07-26T07:28:04.155Z,2.78
2022-07-26T07:30:31.009Z,2.65
2022-07-26T07:32:57.699Z,2.90
2022-07-26T07:35:24.322Z,3.22
2022-07-26T07:37:58.425Z,3.63
2022-07-26T07:40:25.214Z,3.58
2022-07-26T07:42:52.616Z,3.35
2022-07-26T07:45:19.266Z,3.30
2022-07-26T07:47:45.933Z,3.78
2022-07-26T07:50:12.618Z,3.40
2022-07-26T07:52:39.220Z,3.58
2022-07-26T07:55:36.915Z,3.42
2022-07-26T07:57:54.476Z,3.05
2022-07-26T08:00:27.216Z,3.25
2022-07-26T08:02:54.951Z,3.38
2022-07-26T08:05:21.749Z,3.30
2022-07-26T08:07:49.541Z,3.20
2022-07-26T08:10:19.187Z,2.88
2022-07-26T08:12:45.817Z,3.00
2022-07-26T08:15:18.000Z,3.53
2022-07-26T08:17:51.049Z,3.03
2022-07-26T08:20:20.730Z,3.60
2022-07-26T08:22:50.909Z,3.15
2022-07-26T08:25:17.643Z,3.30
2022-07-26T08:27:55.072Z,3.05
2022-07-26T08:30:29.555Z,2.83
2022-07-26T08:32:56.189Z,3.47
2022-07-26T08:35:22.930Z,2.92
2022-07-26T08:37:49.593Z,3.22
2022-07-26T08:40:16.515Z,3.72
2022-07-26T08:42:54.398Z,3.70
2022-07-26T08:45:23.219Z,3.33
2022-07-26T08:48:15.002Z,2.83
2022-07-26T08:50:37.195Z,3.20
2022-07-26T08:53:09.148Z,3.00
2022-07-26T08:56:04.373Z,3.60
2022-07-26T08:58:23.269Z,3.83
2022-07-26T09:01:06.922Z,3.75
2022-07-26T09:03:33.952Z,3.33
2022-07-26T09:06:15.534Z,3.47
2022-07-26T09:08:42.776Z,2.80
2022-07-26T09:11:24.376Z,2.55
2022-07-26T09:14:02.849Z,2.97
2022-07-26T09:16:30.856Z,2.70
2022-07-26T09:19:18.993Z,2.97
2022-07-26T09:21:46.668Z,2.42
2022-07-26T09:24:13.998Z,2.67
2022-07-26T09:26:40.696Z,2.65
2022-07-26T09:29:12.772Z,2.17
2022-07-26T09:31:40.357Z,2.45
2022-07-26T09:34:08.173Z,1.70
2022-07-26T09:36:51.118Z,2.40
2022-07-26T09:39:17.799Z,1.95
2022-07-26T09:42:25.090Z,2.00
2022-07-26T09:44:48.177Z,2.25
2022-07-26T09:47:14.994Z,2.35
2022-07-26T09:49:42.331Z,2.00
2022-07-26T09:52:35.377Z,2.45
2022-07-26T09:55:06.390Z,2.30
2022-07-26T09:57:35.215Z,2.20
2022-07-26T10:00:05.649Z,2.38
2022-07-26T10:02:33.206Z,1.95
2022-07-26T10:04:59.841Z,2.08
2022-07-26T10:07:26.612Z,1.83
2022-07-26T10:09:59.459Z,1.90
2022-07-26T10:12:31.261Z,1.80
2022-07-26T10:14:58.107Z,1.90
2022-07-26T10:17:35.238Z,1.70
2022-07-26T10:20:16.840Z,1.58
2022-07-26T10:22:50.632Z,1.80
2022-07-26T10:25:17.377Z,1.60
2022-07-26T10:27:45.502Z,2.15
2022-07-26T10:30:18.353Z,1.70
2022-07-26T10:32:51.370Z,1.83
2022-07-26T10:35:45.021Z,1.60
2022-07-26T10:38:22.132Z,2.10
2022-07-26T10:41:07.605Z,1.67
2022-07-26T10:43:42.835Z,1.80
2022-07-26T10:46:15.555Z,1.73
2022-07-26T10:49:06.374Z,1.45
2022-07-26T10:54:09.417Z,2.05
2022-07-26T10:56:37.760Z,1.92
2022-07-26T10:59:05.991Z,1.73
2022-07-26T11:01:41.005Z,1.67
2022-07-26T11:04:27.992Z,2.17
2022-07-26T11:07:00.630Z,1.85
2022-07-26T11:09:34.500Z,1.98
2022-07-26T11:12:21.609Z,1.67
2022-07-26T11:14:48.873Z,1.40
2022-07-26T11:17:30.699Z,1.48
2022-07-26T11:19:57.994Z,1.45
2022-07-26T11:22:35.371Z,1.65
2022-07-26T11:25:03.191Z,1.58
2022-07-26T11:27:29.782Z,1.60
2022-07-26T11:30:04.712Z,1.40
2022-07-26T11:32:32.075Z,1.65
2022-07-26T11:35:01.094Z,1.60
2022-07-26T11:37:28.489Z,1.65
2022-07-26T11:39:55.273Z,1.17
2022-07-26T11:42:22.381Z,1.27
2022-07-26T11:44:50.706Z,1.63
2022-07-26T11:47:20.396Z,1.58
2022-07-26T11:50:01.074Z,1.38
2022-07-26T11:52:35.234Z,1.42
2022-07-26T11:55:01.872Z,1.25
2022-07-26T11:57:31.053Z,1.58
2022-07-26T12:00:00.646Z,1.50
2022-07-26T12:02:38.354Z,1.58
2022-07-26T12:05:23.275Z,1.55
2022-07-26T12:08:04.222Z,1.30
2022-07-26T12:10:31.482Z,1.40
2022-07-26T12:13:11.545Z,1.30
2022-07-26T12:15:46.507Z,1.33
2022-07-26T12:18:30.448Z,1.35
2022-07-26T12:21:07.492Z,1.65
2022-07-26T12:23:41.564Z,1.42
2022-07-26T12:26:28.317Z,1.38
2022-07-26T12:28:55.856Z,1.05
2022-07-26T12:31:23.881Z,1.13
2022-07-26T12:33:50.616Z,1.23
2022-07-26T12:36:28.017Z,1.30
2022-07-26T12:38:57.481Z,1.30
2022-07-26T12:41:39.576Z,1.17
2022-07-26T12:44:11.515Z,1.30
2022-07-26T12:46:39.093Z,1.38
2022-07-26T12:49:05.979Z,1.15
2022-07-26T12:51:33.424Z,1.35
2022-07-26T12:54:00.158Z,1.27
2022-07-26T12:56:26.829Z,1.48
2022-07-26T12:58:54.306Z,1.42
2022-07-26T13:01:21.374Z,1.35
2022-07-26T13:03:48.190Z,1.42
2022-07-26T13:06:14.774Z,1.10
2022-07-26T13:08:41.427Z,1.15
2022-07-26T13:11:08.052Z,1.00
2022-07-26T13:13:34.681Z,1.40
2022-07-26T13:16:01.293Z,0.98
2022-07-26T13:18:27.956Z,1.58
2022-07-26T13:20:54.567Z,1.30
2022-07-26T13:23:21.571Z,1.40
2022-07-26T13:25:49.785Z,1.30
2022-07-26T13:28:17.198Z,1.17
2022-07-26T13:30:44.072Z,1.20
2022-07-26T13:33:11.592Z,1.13
2022-07-26T13:35:42.617Z,1.10
2022-07-26T13:38:09.816Z,1.20
2022-07-26T13:40:36.711Z,1.23
2022-07-26T13:43:04.399Z,2.13
2022-07-26T13:45:31.020Z,0.90
2022-07-26T13:47:58.838Z,1.27
2022-07-26T13:50:27.176Z,1.20
2022-07-26T13:52:56.221Z,0.98
2022-07-26T13:55:23.485Z,1.10
2022-07-26T13:57:57.015Z,1.20
2022-07-26T14:00:29.288Z,1.30
2022-07-26T14:02:58.335Z,1.15
2022-07-26T14:05:27.775Z,1.00
2022-07-26T14:07:55.177Z,1.10
2022-07-26T14:10:23.063Z,1.10
2022-07-26T14:12:50.021Z,1.42
2022-07-26T14:15:22.003Z,1.00
2022-07-26T14:17:50.255Z,1.00
2022-07-26T14:20:20.042Z,0.80
2022-07-26T14:22:47.497Z,1.00
2022-07-26T14:25:14.702Z,1.00
2022-07-26T14:27:41.325Z,1.00
2022-07-26T14:30:08.226Z,1.00
2022-07-26T14:32:34.974Z,0.85
2022-07-26T14:35:01.663Z,0.90
2022-07-26T14:37:41.884Z,0.90
2022-07-26T14:40:17.421Z,1.17
2022-07-26T14:42:45.384Z,0.88
2022-07-26T14:45:12.703Z,1.02
2022-07-26T14:47:40.273Z,1.00
2022-07-26T14:50:08.505Z,0.95
2022-07-26T14:52:44.755Z,0.90
2022-07-26T14:55:12.676Z,1.00
2022-07-26T14:57:40.293Z,0.80
2022-07-26T15:00:10.680Z,0.70
2022-07-26T15:02:42.754Z,1.08
2022-07-26T15:05:12.209Z,0.73
2022-07-26T15:07:40.953Z,1.10
2022-07-26T15:10:10.302Z,0.90
2022-07-26T15:12:37.378Z,0.90
2022-07-26T15:15:05.770Z,1.00
2022-07-26T15:17:32.482Z,1.23
2022-07-26T15:19:59.206Z,1.00
2022-07-26T15:22:26.544Z,0.95
2022-07-26T15:24:53.108Z,0.98
2022-07-26T15:27:19.827Z,1.00
2022-07-26T15:29:48.593Z,1.17
2022-07-26T15:32:15.274Z,1.30
2022-07-26T15:34:41.971Z,1.13
2022-07-26T15:37:09.518Z,1.40
2022-07-26T15:39:36.100Z,1.10
2022-07-26T15:42:07.429Z,1.10
2022-07-26T15:44:34.580Z,1.10
2022-07-26T15:47:01.673Z,1.10
2022-07-26T15:49:30.565Z,1.17
2022-07-26T15:51:57.215Z,1.20
2022-07-26T15:54:23.827Z,1.30
2022-07-26T15:56:50.480Z,1.23
2022-07-26T15:59:17.092Z,0.80
2022-07-26T16:01:43.733Z,1.23
2022-07-26T16:04:10.681Z,1.10
2022-07-26T16:06:37.594Z,1.00
2022-07-26T16:09:20.204Z,1.02
2022-07-26T16:11:48.691Z,0.90
2022-07-26T16:14:16.710Z,6.28
2022-07-26T16:16:43.754Z,1.63
2022-07-26T16:19:11.058Z,2.15
2022-07-26T16:21:38.323Z,0.98
2022-07-26T16:24:07.314Z,0.93
2022-07-26T16:26:35.460Z,0.95
2022-07-26T16:29:02.545Z,0.73
2022-07-26T16:31:29.530Z,1.10
2022-07-26T16:33:56.208Z,1.00
2022-07-26T16:36:22.796Z,0.90
2022-07-26T16:38:49.419Z,1.20
2022-07-26T16:41:16.033Z,1.23
2022-07-26T16:43:42.998Z,0.73
2022-07-26T16:46:09.597Z,0.80
2022-07-26T16:48:36.243Z,0.80
2022-07-26T16:51:03.139Z,1.05
2022-07-26T16:53:29.732Z,1.30
2022-07-26T16:55:56.327Z,0.90
2022-07-26T16:58:22.912Z,1.10
2022-07-26T17:00:49.674Z,0.98
2022-07-26T17:03:16.764Z,0.73
2022-07-26T17:05:44.573Z,0.80
2022-07-26T17:08:11.342Z,3.30
2022-07-26T17:10:38.187Z,0.93
2022-07-26T17:13:04.898Z,1.65
2022-07-26T17:15:31.516Z,0.90
2022-07-26T17:17:58.200Z,1.40
2022-07-26T17:20:24.842Z,0.90
2022-07-26T17:22:51.482Z,0.98
2022-07-26T17:25:18.073Z,1.15
2022-07-26T17:27:44.680Z,1.10
2022-07-26T17:30:12.133Z,1.23
2022-07-26T17:32:38.878Z,0.75
2022-07-26T17:35:06.612Z,1.00
2022-07-26T17:37:36.711Z,1.10
2022-07-26T17:40:05.248Z,0.68
2022-07-26T17:42:35.037Z,0.95
2022-07-26T17:45:01.805Z,1.08
2022-07-26T17:47:30.407Z,0.88
2022-07-26T17:50:26.144Z,1.05
2022-07-26T17:52:50.094Z,0.80
2022-07-26T17:55:19.014Z,0.98
2022-07-26T17:57:47.753Z,0.90
2022-07-26T18:00:15.537Z,0.90
2022-07-26T18:02:42.257Z,0.80
2022-07-26T18:05:09.593Z,0.77
2022-07-26T18:07:36.427Z,0.95
2022-07-26T18:10:03.960Z,0.85
2022-07-26T18:12:30.607Z,1.27
2022-07-26T18:14:57.389Z,1.10
2022-07-26T18:17:24.455Z,0.85
2022-07-26T18:19:51.043Z,1.00
2022-07-26T18:22:17.642Z,0.90
2022-07-26T18:24:44.239Z,0.90
2022-07-26T18:27:10.813Z,0.90
2022-07-26T18:29:37.468Z,1.00
2022-07-26T18:32:04.172Z,1.00
2022-07-26T18:34:30.828Z,1.95
2022-07-26T18:36:57.437Z,1.17
2022-07-26T18:39:24.019Z,1.10
2022-07-26T18:41:50.620Z,0.93
2022-07-26T18:44:17.243Z,1.10
2022-07-26T18:46:43.903Z,1.10
2022-07-26T18:49:15.757Z,1.10
2022-07-26T18:51:48.476Z,0.90
2022-07-26T18:54:16.168Z,1.23
2022-07-26T18:56:42.840Z,1.35
2022-07-26T18:59:09.912Z,0.95
2022-07-26T19:01:36.789Z,1.17
2022-07-26T19:04:06.725Z,1.42
2022-07-26T19:06:34.804Z,2.53
2022-07-26T19:09:01.533Z,1.40
2022-07-26T19:11:29.619Z,1.58
2022-07-26T19:13:56.261Z,1.10
2022-07-26T19:16:22.973Z,1.13
2022-07-26T19:18:53.866Z,1.35
2022-07-26T19:21:23.578Z,1.30
2022-07-26T19:23:50.370Z,1.25
2022-07-26T19:26:17.133Z,1.17
2022-07-26T19:28:43.758Z,1.00
2022-07-26T19:31:10.743Z,1.30
2022-07-26T19:33:37.539Z,1.05
2022-07-26T19:36:04.329Z,1.38
2022-07-26T19:38:33.018Z,1.25
2022-07-26T19:41:00.645Z,1.83
2022-07-26T19:43:27.869Z,1.17
2022-07-26T19:45:54.853Z,1.10
2022-07-26T19:48:21.554Z,1.38
2022-07-26T19:50:48.686Z,1.40
2022-07-26T19:53:15.355Z,1.45
2022-07-26T19:55:42.493Z,1.38
2022-07-26T19:58:09.430Z,1.35
2022-07-26T20:00:36.222Z,1.50
2022-07-26T20:03:03.071Z,1.83
2022-07-26T20:05:29.746Z,1.30
2022-07-26T20:07:56.572Z,1.20
2022-07-26T20:10:26.234Z,1.27
2022-07-26T20:12:55.218Z,1.33
2022-07-26T20:15:22.578Z,1.77
2022-07-26T20:17:49.193Z,1.70
2022-07-26T20:20:17.846Z,1.20
2022-07-26T20:22:44.486Z,1.20
2022-07-26T20:25:11.277Z,1.52
2022-07-26T20:27:37.967Z,1.50
2022-07-26T20:30:05.842Z,1.00
2022-07-26T20:32:32.481Z,2.08
2022-07-26T20:34:59.060Z,1.40
2022-07-26T20:37:25.852Z,1.15
2022-07-26T20:39:52.431Z,1.48
2022-07-26T20:42:21.380Z,1.42
2022-07-26T20:44:48.782Z,1.30
2022-07-26T20:47:15.580Z,1.27
2022-07-26T20:49:42.202Z,1.60
2022-07-26T20:52:08.846Z,1.08
2022-07-26T20:54:35.540Z,1.40
2022-07-26T20:57:04.399Z,1.60
2022-07-26T20:59:32.426Z,1.25
2022-07-26T21:01:59.206Z,1.30
2022-07-26T21:04:26.214Z,1.60
2022-07-26T21:06:52.991Z,1.27
2022-07-26T21:09:19.892Z,1.17
2022-07-26T21:11:46.866Z,1.70
2022-07-26T21:14:14.118Z,1.10
2022-07-26T21:16:41.054Z,1.33
2022-07-26T21:19:07.852Z,1.50
2022-07-26T21:21:36.436Z,1.08
2022-07-26T21:24:03.084Z,1.20
2022-07-26T21:26:29.827Z,1.23
2022-07-26T21:28:56.534Z,1.35
2022-07-26T21:31:23.219Z,1.27
2022-07-26T21:33:50.213Z,1.48
2022-07-26T21:36:16.771Z,1.20
2022-07-26T21:38:43.583Z,1.13
2022-07-26T21:41:10.358Z,1.10
2022-07-26T21:43:40.960Z,1.63
2022-07-26T21:46:12.212Z,1.30
2022-07-26T21:48:40.056Z,1.33
2022-07-26T21:51:06.776Z,1.20
2022-07-26T21:53:33.410Z,1.27
2022-07-26T21:55:59.991Z,1.38
2022-07-26T21:58:28.123Z,1.27
2022-07-26T22:01:06.130Z,1.80
2022-07-26T22:03:35.651Z,1.10
2022-07-26T22:06:03.196Z,1.38
2022-07-26T22:08:29.927Z,1.20
2022-07-26T22:10:56.602Z,1.45
2022-07-26T22:13:23.391Z,1.50
2022-07-26T22:15:50.156Z,1.23
2022-07-26T22:18:17.418Z,1.83
2022-07-26T22:20:44.269Z,1.30
2022-07-26T22:23:12.886Z,1.23
2022-07-26T22:25:39.830Z,1.60
2022-07-26T22:28:07.638Z,1.45
2022-07-26T22:30:34.776Z,1.50
2022-07-26T22:33:03.193Z,1.67
2022-07-26T22:35:35.019Z,1.52
2022-07-26T22:38:10.799Z,1.85
2022-07-26T22:40:39.285Z,1.77
2022-07-26T22:43:06.751Z,1.50
2022-07-26T22:45:33.821Z,1.73
2022-07-26T22:48:01.767Z,1.63
2022-07-26T22:50:28.355Z,1.30
2022-07-26T22:52:55.495Z,1.75
2022-07-26T22:55:22.151Z,1.63
2022-07-26T22:57:48.993Z,1.52
2022-07-26T23:00:17.903Z,1.33
2022-07-26T23:02:44.946Z,1.50
2022-07-26T23:05:12.634Z,1.30
2022-07-26T23:07:40.115Z,1.65
2022-07-26T23:10:11.005Z,1.50
2022-07-26T23:12:38.182Z,1.40
2022-07-26T23:15:06.070Z,1.42
2022-07-26T23:17:32.727Z,1.38
2022-07-26T23:19:59.310Z,1.73
2022-07-26T23:22:26.012Z,1.65
2022-07-26T23:24:52.629Z,1.40
2022-07-26T23:27:20.346Z,1.80
2022-07-26T23:29:48.228Z,1.48
2022-07-26T23:32:15.772Z,1.60
2022-07-26T23:34:42.765Z,1.70
2022-07-26T23:37:09.584Z,1.20
2022-07-26T23:39:36.237Z,1.58
2022-07-26T23:42:03.034Z,1.50
2022-07-26T23:44:30.719Z,1.50
2022-07-26T23:46:58.352Z,1.35
2022-07-26T23:49:25.655Z,1.60
2022-07-26T23:51:52.593Z,1.60
2022-07-26T23:54:19.219Z,1.48
2022-07-26T23:56:45.824Z,1.30
2022-07-26T23:59:13.471Z,1.60
